Time;durP1;ratioP1;P1;durP2;ratioP2;P2;SDS_P1;SDS_P2;PMS_P1;PMS_P2;Temp;Humidity;BMP_temperature;BMP_pressure;BME280_temperature;BME280_humidity;BME280_pressure;Samples;Min_cycle;Max_cycle;Signal;HPM_P1;HPM_P2
2022/03/19 00:02:20;;;;;;;18.25;3.97;;;5.10;99.90;;;;;;4995542;28;20038;-67
2022/03/19 00:04:46;;;;;;;11.77;2.67;;;5.10;99.90;;;;;;4995557;28;20397;-67
2022/03/19 00:07:12;;;;;;;15.25;3.05;;;5.00;99.90;;;;;;4996169;28;20049;-67
2022/03/19 00:09:39;;;;;;;15.30;3.13;;;5.00;99.90;;;;;;4993212;28;20042;-67
2022/03/19 00:12:08;;;;;;;13.23;3.40;;;5.00;99.90;;;;;;4995615;28;20122;-67
2022/03/19 00:14:34;;;;;;;17.52;3.15;;;4.90;99.90;;;;;;4996155;28;20493;-67
2022/03/19 00:17:00;;;;;;;13.43;3.05;;;4.90;99.90;;;;;;4993687;28;20486;-67
2022/03/19 00:19:29;;;;;;;13.38;2.88;;;4.90;99.90;;;;;;4993312;28;20081;-67
2022/03/19 00:21:55;;;;;;;17.35;3.63;;;4.90;99.90;;;;;;4997279;28;20050;-67
2022/03/19 00:24:21;;;;;;;12.48;3.00;;;4.80;99.90;;;;;;4993077;28;20049;-67
2022/03/19 00:26:47;;;;;;;16.40;3.90;;;4.90;99.90;;;;;;5011925;28;20049;-67
2022/03/19 00:29:12;;;;;;;15.30;3.33;;;4.80;99.90;;;;;;4997098;28;20358;-67
2022/03/19 00:31:38;;;;;;;13.52;3.53;;;4.80;99.90;;;;;;4993853;28;20030;-67
2022/03/19 00:34:04;;;;;;;21.92;3.75;;;4.80;99.90;;;;;;4993826;28;20108;-67
2022/03/19 00:36:30;;;;;;;13.38;3.00;;;4.80;99.90;;;;;;5028070;28;20057;-67
2022/03/19 00:38:55;;;;;;;15.73;3.60;;;4.80;99.90;;;;;;4992903;28;20051;-67
2022/03/19 00:41:21;;;;;;;18.13;4.25;;;4.80;99.90;;;;;;4993350;28;20046;-67
2022/03/19 00:43:47;;;;;;;18.73;3.13;;;4.80;99.90;;;;;;4995573;28;20029;-67
2022/03/19 00:46:15;;;;;;;16.33;3.33;;;4.80;99.90;;;;;;4994215;28;20046;-67
2022/03/19 00:48:41;;;;;;;15.20;3.28;;;4.80;99.90;;;;;;4995796;28;20504;-67
2022/03/19 00:51:07;;;;;;;13.38;2.78;;;4.80;99.90;;;;;;4995025;28;20074;-67
2022/03/19 00:53:32;;;;;;;18.85;3.88;;;4.70;99.90;;;;;;4995601;28;20058;-67
2022/03/19 00:55:58;;;;;;;15.63;3.47;;;4.70;99.90;;;;;;4997120;28;20050;-67
2022/03/19 00:58:24;;;;;;;15.27;3.38;;;4.70;99.90;;;;;;4997959;28;20037;-67
2022/03/19 01:00:49;;;;;;;19.13;3.65;;;4.70;99.90;;;;;;4992763;28;20049;-67
2022/03/19 01:03:15;;;;;;;14.35;3.47;;;4.80;99.90;;;;;;4994808;28;20034;-67
2022/03/19 01:05:42;;;;;;;15.45;3.47;;;4.70;99.90;;;;;;4998859;28;20108;-67
2022/03/19 01:08:08;;;;;;;16.88;3.72;;;4.60;99.90;;;;;;4996012;28;20060;-67
2022/03/19 01:10:35;;;;;;;14.80;2.75;;;4.60;99.90;;;;;;4981121;28;20064;-67
2022/03/19 01:13:04;;;;;;;14.82;3.92;;;4.60;99.90;;;;;;4996654;28;20048;-67
2022/03/19 01:15:30;;;;;;;14.88;3.88;;;4.50;99.90;;;;;;5026403;28;20131;-67
2022/03/19 01:17:56;;;;;;;20.00;4.15;;;4.50;99.90;;;;;;4991608;28;20089;-67
2022/03/19 01:20:22;;;;;;;13.20;4.20;;;4.50;99.90;;;;;;5028771;28;20042;-67
2022/03/19 01:22:49;;;;;;;13.23;3.95;;;4.40;99.90;;;;;;5022883;28;20478;-67
2022/03/19 01:25:16;;;;;;;12.88;3.30;;;4.40;99.90;;;;;;4978346;28;20132;-67
2022/03/19 01:27:43;;;;;;;18.95;3.78;;;4.40;99.90;;;;;;4996198;28;20387;-67
2022/03/19 01:30:11;;;;;;;17.48;4.78;;;4.40;99.90;;;;;;4979174;28;20046;-67
2022/03/19 01:32:37;;;;;;;18.00;3.67;;;4.40;99.90;;;;;;4996760;28;20491;-67
2022/03/19 01:35:04;;;;;;;13.50;3.63;;;4.40;99.90;;;;;;5002122;28;20069;-67
2022/03/19 01:37:30;;;;;;;15.25;3.53;;;4.40;99.90;;;;;;4999939;28;20125;-66
2022/03/19 01:39:56;;;;;;;14.25;3.13;;;4.40;99.90;;;;;;4998788;28;20406;-66
2022/03/19 01:42:27;;;;;;;20.65;4.90;;;4.30;99.90;;;;;;4998963;28;20042;-66
2022/03/19 01:44:54;;;;;;;14.32;3.85;;;4.30;99.90;;;;;;4995283;28;20121;-67
2022/03/19 01:47:21;;;;;;;14.85;4.70;;;4.30;99.90;;;;;;4997830;28;20477;-67
2022/03/19 01:49:47;;;;;;;19.55;4.32;;;4.30;99.90;;;;;;5000603;28;20124;-67
2022/03/19 01:52:13;;;;;;;15.88;3.67;;;4.30;99.90;;;;;;4998518;28;20049;-67
2022/03/19 01:54:43;;;;;;;12.00;3.72;;;4.30;99.90;;;;;;5001602;28;20042;-67
2022/03/19 01:57:11;;;;;;;15.80;3.30;;;4.20;99.90;;;;;;4999673;28;20480;-67
2022/03/19 01:59:37;;;;;;;14.27;3.85;;;4.20;99.90;;;;;;4998686;28;20048;-67
2022/03/19 02:02:05;;;;;;;18.80;3.65;;;4.20;99.90;;;;;;4992996;28;20150;-67
2022/03/19 02:04:34;;;;;;;13.73;3.45;;;4.20;99.90;;;;;;5001178;28;20038;-67
2022/03/19 02:07:00;;;;;;;14.65;3.63;;;4.10;99.90;;;;;;4998273;28;20038;-67
2022/03/19 02:09:28;;;;;;;12.30;3.15;;;4.20;99.90;;;;;;4994762;28;20042;-67
2022/03/19 02:11:53;;;;;;;12.43;3.10;;;4.20;99.90;;;;;;4994300;28;20481;-67
2022/03/19 02:14:19;;;;;;;17.55;3.58;;;4.20;99.90;;;;;;4997827;28;20124;-67
2022/03/19 02:16:46;;;;;;;15.25;3.65;;;4.20;99.90;;;;;;4997345;28;20517;-67
2022/03/19 02:19:12;;;;;;;20.58;5.03;;;4.20;99.90;;;;;;4999573;28;20149;-67
2022/03/19 02:21:48;;;;;;;16.17;3.75;;;4.20;99.90;;;;;;4999720;28;20197;-67
2022/03/19 02:27:00;;;;;;;15.82;3.65;;;4.10;99.90;;;;;;4998052;28;20119;-66
2022/03/19 02:29:27;;;;;;;16.52;4.00;;;4.00;99.90;;;;;;4994756;28;20035;-66
2022/03/19 02:31:56;;;;;;;14.68;3.85;;;4.00;99.90;;;;;;4997958;28;20069;-66
2022/03/19 02:34:22;;;;;;;20.48;4.32;;;4.00;99.90;;;;;;5031643;28;20049;-67
2022/03/19 02:36:48;;;;;;;16.90;4.03;;;4.00;99.90;;;;;;4996128;28;20050;-67
2022/03/19 02:39:18;;;;;;;13.10;3.80;;;4.00;99.90;;;;;;4997125;28;20547;-67
2022/03/19 02:41:49;;;;;;;21.60;4.43;;;3.90;99.90;;;;;;5010253;28;20066;-67
2022/03/19 02:44:16;;;;;;;19.33;4.25;;;3.90;99.90;;;;;;4998983;28;20042;-67
2022/03/19 02:46:45;;;;;;;18.98;4.03;;;3.90;99.90;;;;;;4996044;28;20050;-67
2022/03/19 02:49:11;;;;;;;22.98;4.60;;;3.90;99.90;;;;;;4996652;28;20041;-66
2022/03/19 02:51:38;;;;;;;18.25;3.50;;;4.00;99.90;;;;;;4997386;28;20080;-67
2022/03/19 02:54:05;;;;;;;17.63;3.67;;;3.90;99.90;;;;;;4982396;28;20120;-67
2022/03/19 02:56:36;;;;;;;13.35;3.80;;;3.80;99.90;;;;;;4993650;28;20118;-67
2022/03/19 02:59:17;;;;;;;20.58;4.90;;;3.80;99.90;;;;;;4993489;28;20053;-67
2022/03/19 03:01:47;;;;;;;16.60;3.90;;;3.80;99.90;;;;;;4995099;28;20403;-67
2022/03/19 03:04:13;;;;;;;19.98;3.83;;;3.80;99.90;;;;;;4995151;28;20061;-67
2022/03/19 03:06:44;;;;;;;14.23;3.97;;;3.80;99.90;;;;;;4998129;28;20161;-67
2022/03/19 03:09:10;;;;;;;14.55;3.38;;;3.80;99.90;;;;;;4996283;28;20034;-67
2022/03/19 03:11:38;;;;;;;16.02;3.55;;;3.80;99.90;;;;;;4998192;28;20182;-67
2022/03/19 03:14:08;;;;;;;11.80;3.25;;;3.70;99.90;;;;;;4996647;28;20121;-67
2022/03/19 03:16:34;;;;;;;19.83;4.22;;;3.70;99.90;;;;;;4994177;28;20077;-67
2022/03/19 03:19:05;;;;;;;16.48;3.60;;;3.70;99.90;;;;;;4999219;28;20033;-67
2022/03/19 03:21:32;;;;;;;15.45;3.65;;;3.80;99.90;;;;;;5026355;28;20042;-66
2022/03/19 03:23:59;;;;;;;16.42;4.05;;;3.80;99.90;;;;;;4998744;28;20044;-66
2022/03/19 03:26:25;;;;;;;14.20;3.60;;;3.80;99.90;;;;;;5027394;28;20128;-66
2022/03/19 03:28:51;;;;;;;16.83;4.05;;;3.70;99.90;;;;;;4997009;28;20053;-66
2022/03/19 03:31:18;;;;;;;14.40;3.92;;;3.80;99.90;;;;;;4997799;28;20062;-67
2022/03/19 03:33:44;;;;;;;13.60;4.22;;;3.80;99.90;;;;;;5001320;28;20049;-67
2022/03/19 03:36:09;;;;;;;12.07;3.88;;;3.70;99.90;;;;;;5000897;28;20045;-67
2022/03/19 03:38:35;;;;;;;12.75;3.72;;;3.70;99.90;;;;;;5002184;28;20117;-67
2022/03/19 03:41:01;;;;;;;15.93;4.18;;;3.80;99.90;;;;;;4996146;28;20042;-66
2022/03/19 03:43:27;;;;;;;12.38;3.50;;;3.80;99.90;;;;;;4997151;28;20037;-66
2022/03/19 03:45:52;;;;;;;15.32;4.22;;;3.80;99.90;;;;;;4996134;28;20124;-66
2022/03/19 03:48:18;;;;;;;15.30;3.95;;;3.90;99.90;;;;;;4976515;28;20102;-67
2022/03/19 03:50:44;;;;;;;17.85;4.15;;;3.90;99.90;;;;;;5000281;28;20046;-67
2022/03/19 03:53:10;;;;;;;13.02;3.95;;;3.90;99.90;;;;;;4993999;28;20470;-67
2022/03/19 03:55:37;;;;;;;15.05;4.18;;;3.90;99.90;;;;;;4999900;28;20041;-67
2022/03/19 03:58:04;;;;;;;12.90;4.07;;;3.90;99.90;;;;;;4999972;28;20450;-67
2022/03/19 04:00:33;;;;;;;14.95;4.65;;;3.90;99.90;;;;;;5004665;28;20478;-67
2022/03/19 04:02:59;;;;;;;19.27;4.10;;;3.90;99.90;;;;;;5004700;28;20053;-67
2022/03/19 04:05:24;;;;;;;15.38;4.93;;;3.90;99.90;;;;;;5001985;28;20042;-67
2022/03/19 04:07:50;;;;;;;17.10;4.38;;;3.90;99.90;;;;;;5001641;28;20040;-67
2022/03/19 04:10:16;;;;;;;11.27;4.45;;;3.90;99.90;;;;;;5002329;28;20092;-67
2022/03/19 04:12:42;;;;;;;16.88;4.35;;;3.90;99.90;;;;;;5003515;28;20085;-67
2022/03/19 04:15:09;;;;;;;16.70;4.80;;;3.90;99.90;;;;;;5001245;28;20045;-67
2022/03/19 04:17:35;;;;;;;13.65;3.92;;;3.90;99.90;;;;;;4998763;28;20084;-67
2022/03/19 04:20:03;;;;;;;14.90;3.88;;;3.90;99.90;;;;;;5000850;28;20048;-67
2022/03/19 04:22:40;;;;;;;16.10;4.38;;;3.80;99.90;;;;;;4996195;28;20129;-67
2022/03/19 04:25:18;;;;;;;14.70;4.13;;;3.90;99.90;;;;;;5034125;28;20120;-67
2022/03/19 04:27:45;;;;;;;14.18;4.13;;;3.90;99.90;;;;;;5000546;28;20046;-67
2022/03/19 04:30:13;;;;;;;11.98;4.15;;;3.80;99.90;;;;;;4997413;28;20045;-67
2022/03/19 04:32:46;;;;;;;12.93;3.85;;;3.80;99.90;;;;;;4998973;28;20060;-67
2022/03/19 04:38:03;;;;;;;14.98;4.47;;;3.80;99.90;;;;;;4992797;28;20140;-67
2022/03/19 04:40:30;;;;;;;13.52;4.57;;;3.80;99.90;;;;;;5026427;28;20030;-67
2022/03/19 04:42:56;;;;;;;17.13;3.88;;;3.80;99.90;;;;;;5002826;28;20095;-67
2022/03/19 04:45:22;;;;;;;13.63;4.32;;;3.80;99.90;;;;;;5003920;28;20417;-67
2022/03/19 04:47:48;;;;;;;15.88;4.47;;;3.80;99.90;;;;;;5000076;28;20140;-67
2022/03/19 04:50:14;;;;;;;14.57;4.57;;;3.70;99.90;;;;;;5005322;28;20053;-67
2022/03/19 04:52:40;;;;;;;16.00;4.25;;;3.70;99.90;;;;;;4999595;28;20414;-67
2022/03/19 04:55:07;;;;;;;18.38;4.50;;;3.70;99.90;;;;;;5004918;28;20069;-67
2022/03/19 04:57:34;;;;;;;13.50;3.90;;;3.70;99.90;;;;;;5001646;28;20103;-67
2022/03/19 05:00:00;;;;;;;15.00;4.20;;;3.70;99.90;;;;;;5004893;28;20068;-67
2022/03/19 05:02:26;;;;;;;15.38;4.50;;;3.70;99.90;;;;;;5004328;28;20096;-67
2022/03/19 05:04:52;;;;;;;14.95;4.53;;;3.70;99.90;;;;;;5005455;28;20188;-67
2022/03/19 05:07:19;;;;;;;14.77;4.28;;;3.70;99.90;;;;;;5008008;28;20038;-67
2022/03/19 05:12:35;;;;;;;11.25;4.30;;;3.60;99.90;;;;;;5008665;28;20449;-67
2022/03/19 05:15:00;;;;;;;13.75;4.35;;;3.60;99.90;;;;;;5007001;28;20046;-67
2022/03/19 05:17:26;;;;;;;13.27;3.75;;;3.60;99.90;;;;;;5009806;28;20492;-67
2022/03/19 05:19:52;;;;;;;12.68;4.72;;;3.60;99.90;;;;;;5007611;28;20034;-67
2022/03/19 05:22:18;;;;;;;13.63;4.40;;;3.60;99.90;;;;;;5010206;28;20391;-67
2022/03/19 05:24:44;;;;;;;17.75;5.18;;;3.60;99.90;;;;;;5008446;28;20049;-67
2022/03/19 05:27:11;;;;;;;14.48;4.88;;;3.60;99.90;;;;;;5007843;28;20034;-67
2022/03/19 05:29:37;;;;;;;15.05;4.55;;;3.60;99.90;;;;;;5001814;28;20046;-67
2022/03/19 05:32:06;;;;;;;15.68;4.65;;;3.60;99.90;;;;;;5003173;28;20042;-67
2022/03/19 05:34:33;;;;;;;16.13;4.60;;;3.60;99.90;;;;;;5007530;28;20050;-67
2022/03/19 05:37:00;;;;;;;15.93;5.22;;;3.60;99.90;;;;;;5002242;28;20429;-67
2022/03/19 05:39:27;;;;;;;14.73;4.10;;;3.60;99.90;;;;;;5009197;28;20261;-67
2022/03/19 05:41:54;;;;;;;14.18;3.80;;;3.60;99.90;;;;;;5003015;28;20041;-67
2022/03/19 05:44:20;;;;;;;12.38;4.85;;;3.60;99.90;;;;;;5010251;28;20506;-67
2022/03/19 05:46:46;;;;;;;15.77;4.60;;;3.60;99.90;;;;;;5002051;28;20059;-67
2022/03/19 05:49:12;;;;;;;12.68;3.95;;;3.60;99.90;;;;;;5039333;28;20534;-67
2022/03/19 05:51:38;;;;;;;14.02;5.03;;;3.60;99.90;;;;;;5004677;28;20493;-67
2022/03/19 05:54:04;;;;;;;15.20;4.13;;;3.60;99.90;;;;;;5007315;28;20050;-67
2022/03/19 05:56:30;;;;;;;15.50;4.80;;;3.60;99.90;;;;;;5006372;28;20042;-67
2022/03/19 05:58:56;;;;;;;14.18;3.65;;;3.60;99.90;;;;;;5006195;28;20057;-67
2022/03/19 06:01:28;;;;;;;16.10;5.45;;;3.60;99.90;;;;;;5007553;28;20338;-67
2022/03/19 06:03:55;;;;;;;12.15;4.03;;;3.70;99.90;;;;;;5007007;28;20089;-67
2022/03/19 06:06:21;;;;;;;14.55;4.32;;;3.70;99.90;;;;;;5031344;28;20050;-67
2022/03/19 06:08:47;;;;;;;14.55;4.20;;;3.70;99.90;;;;;;5006627;28;20117;-67
2022/03/19 06:11:13;;;;;;;14.73;4.70;;;3.70;99.90;;;;;;5006592;28;20191;-67
2022/03/19 06:13:39;;;;;;;18.00;4.10;;;3.70;99.90;;;;;;5007112;28;20374;-67
2022/03/19 06:16:05;;;;;;;15.18;4.43;;;3.80;99.90;;;;;;5002128;28;20076;-67
2022/03/19 06:18:30;;;;;;;16.52;4.45;;;3.80;99.90;;;;;;5008411;28;20042;-67
2022/03/19 06:20:56;;;;;;;15.75;4.47;;;3.90;99.90;;;;;;5003991;28;20081;-67
2022/03/19 06:23:23;;;;;;;14.45;4.45;;;4.00;99.90;;;;;;5007845;28;20042;-67
2022/03/19 06:25:49;;;;;;;15.35;4.78;;;4.10;99.90;;;;;;5005616;28;20056;-67
2022/03/19 06:28:15;;;;;;;15.75;4.57;;;4.10;99.90;;;;;;5005926;28;20143;-67
2022/03/19 06:30:41;;;;;;;16.65;4.38;;;4.20;99.90;;;;;;5034004;28;20133;-67
2022/03/19 06:33:07;;;;;;;14.10;4.20;;;4.30;99.90;;;;;;5003813;28;20125;-67
2022/03/19 06:38:21;;;;;;;16.45;4.60;;;4.40;99.90;;;;;;5006025;28;20402;-67
2022/03/19 06:40:46;;;;;;;19.38;4.78;;;4.50;99.90;;;;;;5007420;28;20072;-67
2022/03/19 06:43:12;;;;;;;15.32;4.30;;;4.50;99.90;;;;;;5007760;28;20045;-67
2022/03/19 06:45:38;;;;;;;18.08;4.57;;;4.60;99.90;;;;;;5006802;28;20057;-67
2022/03/19 06:48:05;;;;;;;13.88;4.18;;;4.70;99.90;;;;;;5003545;28;20470;-67
2022/03/19 06:50:30;;;;;;;15.50;4.38;;;4.70;99.90;;;;;;5006680;28;20069;-67
2022/03/19 06:52:56;;;;;;;11.10;4.25;;;4.80;99.90;;;;;;5005586;28;20116;-67
2022/03/19 06:55:22;;;;;;;18.23;4.90;;;4.90;99.90;;;;;;5037642;28;20045;-67
2022/03/19 06:57:48;;;;;;;13.73;4.13;;;5.00;99.90;;;;;;5007784;28;20042;-67
2022/03/19 07:00:14;;;;;;;12.40;4.07;;;5.00;99.90;;;;;;5007547;28;20181;-67
2022/03/19 07:02:51;;;;;;;15.45;4.80;;;5.10;99.90;;;;;;5004989;28;20049;-67
2022/03/19 07:05:20;;;;;;;19.23;4.78;;;5.20;99.90;;;;;;5006116;28;20108;-67
2022/03/19 07:07:47;;;;;;;13.60;4.47;;;5.30;99.90;;;;;;5008165;28;20119;-67
2022/03/19 07:10:15;;;;;;;12.68;4.45;;;5.40;99.90;;;;;;5005870;28;20041;-67
2022/03/19 07:12:48;;;;;;;14.30;4.68;;;5.50;99.90;;;;;;5001194;28;20038;-67
2022/03/19 07:15:15;;;;;;;17.67;5.00;;;5.60;99.90;;;;;;4997780;28;20091;-67
2022/03/19 07:17:43;;;;;;;16.38;4.43;;;5.70;99.90;;;;;;5001723;28;20584;-67
2022/03/19 07:20:10;;;;;;;27.40;11.07;;;5.70;99.90;;;;;;4979734;28;20053;-67
2022/03/19 07:22:55;;;;;;;15.30;4.72;;;5.80;99.90;;;;;;4996333;28;20061;-66
2022/03/19 07:25:24;;;;;;;14.80;5.00;;;6.00;99.90;;;;;;5005572;28;20040;-66
2022/03/19 07:27:51;;;;;;;17.63;4.55;;;6.30;99.90;;;;;;4998098;28;20116;-67
2022/03/19 07:30:17;;;;;;;18.33;4.63;;;6.60;99.90;;;;;;4996572;28;20038;-67
2022/03/19 07:32:43;;;;;;;18.33;4.43;;;7.20;99.90;;;;;;4998548;28;20347;-67
2022/03/19 07:35:12;;;;;;;14.35;4.32;;;7.70;99.90;;;;;;5010663;28;20046;-68
2022/03/19 07:37:40;;;;;;;12.65;4.55;;;8.00;98.30;;;;;;5017310;28;20080;-68
2022/03/19 07:40:08;;;;;;;15.88;4.15;;;8.10;97.70;;;;;;4997898;28;20053;-67
2022/03/19 07:42:35;;;;;;;12.48;5.10;;;8.60;97.90;;;;;;5005950;28;20038;-68
2022/03/19 07:45:02;;;;;;;74.63;55.00;;;9.10;97.10;;;;;;5001361;28;20038;-67
2022/03/19 07:47:29;;;;;;;19.52;5.03;;;9.90;96.30;;;;;;5003729;28;20501;-68
2022/03/19 07:49:55;;;;;;;12.57;4.68;;;10.00;92.90;;;;;;5002472;28;20050;-68
2022/03/19 07:52:21;;;;;;;20.33;5.72;;;10.40;93.50;;;;;;5003103;28;20061;-68
2022/03/19 07:54:47;;;;;;;15.38;4.60;;;10.80;91.70;;;;;;5004055;28;20125;-68
2022/03/19 07:57:13;;;;;;;14.43;4.28;;;11.10;90.40;;;;;;5004653;28;20117;-68
2022/03/19 07:59:40;;;;;;;13.23;4.03;;;11.40;89.70;;;;;;5006262;28;20046;-68
2022/03/19 08:02:06;;;;;;;11.45;4.00;;;11.80;88.40;;;;;;5006528;28;20038;-68
2022/03/19 08:04:32;;;;;;;15.02;4.00;;;12.00;84.30;;;;;;5003765;28;20077;-68
2022/03/19 08:06:57;;;;;;;12.63;4.07;;;12.20;82.70;;;;;;5008560;28;20581;-68
2022/03/19 08:09:24;;;;;;;11.85;3.22;;;12.40;81.90;;;;;;5033450;28;20133;-68
2022/03/19 08:11:51;;;;;;;13.02;3.53;;;12.70;79.50;;;;;;5009236;28;20437;-68
2022/03/19 08:14:19;;;;;;;14.48;4.07;;;12.70;78.20;;;;;;5003741;28;20144;-68
2022/03/19 08:16:46;;;;;;;16.00;4.40;;;12.60;76.30;;;;;;4993202;28;20049;-68
2022/03/19 08:19:13;;;;;;;11.40;3.70;;;12.90;77.80;;;;;;5001068;28;20046;-68
2022/03/19 08:21:40;;;;;;;11.35;4.35;;;13.20;73.90;;;;;;4997620;28;20150;-68
2022/03/19 08:24:07;;;;;;;14.13;3.75;;;13.20;74.70;;;;;;5009721;28;20406;-68
2022/03/19 08:26:33;;;;;;;13.98;4.18;;;13.30;73.00;;;;;;5029563;28;20064;-68
2022/03/19 08:28:59;;;;;;;12.25;3.80;;;13.50;72.40;;;;;;5002845;28;20053;-68
2022/03/19 08:31:25;;;;;;;14.43;3.75;;;13.70;70.30;;;;;;5005358;28;20046;-68
2022/03/19 08:33:52;;;;;;;10.93;3.47;;;13.90;70.50;;;;;;5002648;28;20054;-68
2022/03/19 08:36:18;;;;;;;14.38;3.50;;;14.20;69.40;;;;;;5004658;28;20038;-68
2022/03/19 08:41:28;;;;;;;14.38;3.60;;;14.10;66.60;;;;;;5033218;28;20401;-68
2022/03/19 08:43:54;;;;;;;14.05;4.50;;;14.20;67.90;;;;;;5001867;28;20046;-68
2022/03/19 08:46:19;;;;;;;15.23;3.65;;;14.60;66.90;;;;;;5000904;28;20099;-68
2022/03/19 08:48:45;;;;;;;13.63;3.58;;;14.70;64.90;;;;;;5000136;28;20437;-68
2022/03/19 08:53:55;;;;;;;9.70;3.15;;;14.40;62.60;;;;;;5002933;28;20052;-68
2022/03/19 08:56:21;;;;;;;11.82;2.85;;;14.70;65.10;;;;;;4998606;28;20042;-68
2022/03/19 08:58:47;;;;;;;11.32;3.38;;;14.70;64.20;;;;;;5000998;28;20374;-68
2022/03/19 09:01:13;;;;;;;8.25;2.70;;;15.20;64.10;;;;;;4998619;28;20049;-68
2022/03/19 09:03:39;;;;;;;12.90;3.67;;;15.70;62.50;;;;;;5004144;28;20045;-69
2022/03/19 09:06:05;;;;;;;12.82;3.15;;;15.80;60.10;;;;;;5001563;28;20546;-69
2022/03/19 09:08:30;;;;;;;10.65;3.15;;;15.80;60.20;;;;;;5007612;28;20170;-69
2022/03/19 09:10:57;;;;;;;11.23;2.40;;;15.90;59.60;;;;;;5037439;28;20473;-69
2022/03/19 09:13:23;;;;;;;11.25;2.78;;;15.90;58.50;;;;;;5000914;28;20074;-68
2022/03/19 09:15:49;;;;;;;11.35;3.10;;;15.80;56.60;;;;;;5001773;28;20077;-69
2022/03/19 09:18:16;;;;;;;9.63;2.90;;;15.30;57.30;;;;;;5000222;28;20037;-68
2022/03/19 09:20:42;;;;;;;10.20;3.95;;;15.40;57.70;;;;;;5001090;28;20053;-69
2022/03/19 09:23:09;;;;;;;10.02;2.72;;;15.10;56.50;;;;;;4998012;28;20045;-68
2022/03/19 09:25:36;;;;;;;7.15;2.45;;;15.20;56.50;;;;;;5034737;28;20078;-68
2022/03/19 09:28:02;;;;;;;9.52;2.83;;;15.20;55.70;;;;;;4999162;28;20049;-70
2022/03/19 09:30:27;;;;;;;7.85;2.28;;;15.30;54.90;;;;;;5006251;28;20406;-68
2022/03/19 09:32:57;;;;;;;10.35;2.15;;;14.70;54.80;;;;;;5005688;28;20042;-68
2022/03/19 09:35:24;;;;;;;8.32;2.35;;;14.80;55.20;;;;;;5001344;28;20062;-69
2022/03/19 09:37:50;;;;;;;7.57;2.25;;;14.70;54.60;;;;;;5000085;28;20049;-69
2022/03/19 09:40:17;;;;;;;8.35;2.10;;;15.20;54.70;;;;;;5003715;28;20036;-68
2022/03/19 09:42:48;;;;;;;10.18;2.88;;;15.00;52.50;;;;;;5000425;28;20054;-68
2022/03/19 09:45:14;;;;;;;7.00;1.83;;;14.90;53.00;;;;;;5000729;28;20100;-69
2022/03/19 09:47:39;;;;;;;9.45;2.28;;;14.70;53.20;;;;;;5002822;28;20474;-69
2022/03/19 09:50:06;;;;;;;10.02;2.78;;;14.90;54.50;;;;;;4999972;28;20068;-69
2022/03/19 09:52:35;;;;;;;11.25;2.78;;;15.10;54.80;;;;;;5008967;28;20050;-69
2022/03/19 09:55:02;;;;;;;9.48;2.28;;;15.40;55.00;;;;;;4998640;28;20050;-68
2022/03/19 09:57:28;;;;;;;10.10;2.80;;;15.40;54.50;;;;;;5006209;28;20034;-68
2022/03/19 09:59:53;;;;;;;10.25;2.47;;;15.50;55.10;;;;;;4995892;28;20042;-68
2022/03/19 10:02:19;;;;;;;8.63;2.30;;;15.60;54.30;;;;;;5003887;28;20046;-68
2022/03/19 10:04:45;;;;;;;11.27;2.90;;;15.40;53.90;;;;;;4998515;28;20096;-68
2022/03/19 10:09:57;;;;;;;7.78;2.13;;;15.60;54.80;;;;;;5004159;28;20085;-69
2022/03/19 10:12:28;;;;;;;10.15;2.60;;;15.70;53.30;;;;;;5010006;28;20053;-68
2022/03/19 10:14:56;;;;;;;10.45;3.00;;;15.50;53.60;;;;;;4997410;28;20510;-68
2022/03/19 10:17:33;;;;;;;10.73;2.72;;;15.70;53.80;;;;;;5005194;28;20139;-68
2022/03/19 10:20:03;;;;;;;8.43;2.88;;;15.80;52.00;;;;;;4997893;28;20038;-68
2022/03/19 10:22:29;;;;;;;8.35;2.30;;;15.70;52.90;;;;;;5004852;28;20033;-68
2022/03/19 10:25:01;;;;;;;7.63;2.13;;;15.70;52.70;;;;;;5003269;28;20053;-68
2022/03/19 10:27:32;;;;;;;8.13;2.22;;;16.00;52.40;;;;;;5005477;28;20061;-68
2022/03/19 10:30:03;;;;;;;8.55;2.20;;;16.00;52.50;;;;;;5002465;28;20054;-68
2022/03/19 10:32:30;;;;;;;9.35;1.88;;;15.90;50.60;;;;;;5002133;28;20045;-68
2022/03/19 10:34:55;;;;;;;7.50;2.03;;;15.60;50.30;;;;;;5001374;28;20793;-68
2022/03/19 10:37:39;;;;;;;8.07;1.73;;;15.50;50.40;;;;;;5003275;28;20041;-68
2022/03/19 10:40:09;;;;;;;8.30;2.28;;;15.70;48.90;;;;;;5000292;28;20049;-68
2022/03/19 10:42:39;;;;;;;10.70;1.80;;;15.80;49.30;;;;;;5004260;28;20086;-68
2022/03/19 10:45:11;;;;;;;10.15;2.20;;;15.90;47.90;;;;;;5000187;28;20150;-68
2022/03/19 10:47:45;;;;;;;8.48;2.65;;;15.80;49.60;;;;;;4999984;28;20057;-68
2022/03/19 10:50:18;;;;;;;6.43;1.73;;;15.80;50.40;;;;;;4997675;28;20053;-68
2022/03/19 10:52:46;;;;;;;10.57;1.92;;;15.90;49.40;;;;;;4999712;28;20089;-73
2022/03/19 10:55:12;;;;;;;7.03;1.70;;;15.80;47.00;;;;;;4996683;28;20037;-68
2022/03/19 10:57:37;;;;;;;8.65;1.92;;;15.60;46.50;;;;;;5001442;28;20553;-68
2022/03/19 11:00:04;;;;;;;7.32;1.48;;;15.60;46.70;;;;;;4996199;28;20224;-68
2022/03/19 11:02:31;;;;;;;5.68;1.55;;;15.80;45.50;;;;;;4998479;28;20382;-68
2022/03/19 11:05:00;;;;;;;6.25;1.63;;;15.50;46.30;;;;;;5000614;28;20073;-67
2022/03/19 11:07:30;;;;;;;7.80;1.92;;;15.20;46.30;;;;;;4998023;28;20030;-67
2022/03/19 11:10:00;;;;;;;6.50;1.50;;;15.40;47.30;;;;;;5001406;28;20101;-73
2022/03/19 11:12:32;;;;;;;6.05;1.70;;;15.40;48.80;;;;;;5016473;28;20085;-74
2022/03/19 11:14:59;;;;;;;7.32;1.60;;;15.70;47.80;;;;;;5033514;28;20042;-67
2022/03/19 11:17:30;;;;;;;4.88;1.40;;;15.90;46.70;;;;;;4999255;28;20049;-69
2022/03/19 11:19:59;;;;;;;5.03;1.10;;;15.90;46.20;;;;;;5003197;28;20470;-69
2022/03/19 11:22:26;;;;;;;5.55;0.90;;;15.80;44.90;;;;;;5000326;28;20144;-73
2022/03/19 11:24:54;;;;;;;3.92;0.82;;;15.80;44.60;;;;;;5005439;28;20165;-67
2022/03/19 11:27:22;;;;;;;6.88;1.50;;;15.50;43.60;;;;;;4999709;28;20096;-68
2022/03/19 11:29:47;;;;;;;7.28;1.67;;;15.70;45.00;;;;;;5006837;28;20433;-68
2022/03/19 11:32:23;;;;;;;6.00;1.80;;;16.00;45.10;;;;;;4998281;28;20057;-67
2022/03/19 11:34:50;;;;;;;5.65;1.48;;;16.00;44.50;;;;;;5007750;28;20054;-66
2022/03/19 11:37:16;;;;;;;6.28;1.50;;;15.90;44.80;;;;;;4996892;28;20058;-67
2022/03/19 11:40:11;;;;;;;5.28;1.45;;;15.90;45.50;;;;;;4998187;28;20100;-68
2022/03/19 11:42:56;;;;;;;5.65;1.08;;;15.90;43.30;;;;;;4993996;28;20070;-70
2022/03/19 11:45:25;;;;;;;5.40;1.40;;;16.00;44.00;;;;;;5030878;28;20116;-68
2022/03/19 11:47:51;;;;;;;4.55;1.23;;;16.00;45.40;;;;;;5005426;28;20049;-68
2022/03/19 11:50:21;;;;;;;5.20;1.13;;;16.00;43.70;;;;;;4996612;28;20041;-67
2022/03/19 11:52:46;;;;;;;3.83;0.90;;;15.90;43.70;;;;;;4992132;28;20054;-73
2022/03/19 11:55:16;;;;;;;7.63;4.18;;;16.10;42.60;;;;;;4993520;28;20073;-67
2022/03/19 11:58:05;;;;;;;4.68;1.00;;;15.90;43.00;;;;;;4994185;28;20042;-72
2022/03/19 12:00:35;;;;;;;5.25;1.08;;;16.10;42.60;;;;;;4994113;28;20054;-72
2022/03/19 12:03:12;;;;;;;1.92;0.50;;;16.40;41.70;;;;;;4993832;28;20065;-69
2022/03/19 12:05:43;;;;;;;3.42;0.93;;;16.40;40.40;;;;;;5000157;28;20034;-68
2022/03/19 12:08:12;;;;;;;3.22;0.68;;;16.30;40.90;;;;;;4997530;28;20034;-67
2022/03/19 12:10:55;;;;;;;5.68;1.30;;;16.50;41.00;;;;;;4998758;28;20073;-68
2022/03/19 12:13:26;;;;;;;4.00;1.10;;;16.30;41.60;;;;;;4998850;28;20056;-68
2022/03/19 12:15:53;;;;;;;4.53;0.85;;;16.30;42.80;;;;;;5002319;28;20042;-68
2022/03/19 12:18:47;;;;;;;3.30;0.70;;;16.30;42.10;;;;;;5002758;28;20121;-69
2022/03/19 12:21:21;;;;;;;3.70;0.85;;;16.60;40.60;;;;;;5003502;28;20053;-68
2022/03/19 12:24:26;;;;;;;2.60;0.88;;;16.70;39.70;;;;;;5001684;28;20249;-68
2022/03/19 12:26:52;;;;;;;;;;;16.60;38.40;;;;;;5007359;28;20050;-69
2022/03/19 12:29:20;;;;;;;3.80;0.82;;;16.20;39.30;;;;;;5001357;28;19917;-69
2022/03/19 12:31:50;;;;;;;3.17;1.00;;;16.50;40.30;;;;;;4999554;28;20050;-68
2022/03/19 12:34:18;;;;;;;3.65;0.98;;;16.70;40.80;;;;;;5003936;28;20046;-67
2022/03/19 12:36:46;;;;;;;3.72;0.77;;;16.60;39.20;;;;;;5002286;28;20052;-67
2022/03/19 12:39:12;;;;;;;3.40;0.80;;;16.30;39.20;;;;;;4997584;28;20126;-67
2022/03/19 12:41:40;;;;;;;2.53;0.70;;;16.10;39.00;;;;;;5000176;28;20049;-67
2022/03/19 12:44:07;;;;;;;4.78;1.00;;;16.50;40.20;;;;;;4997621;28;20074;-67
2022/03/19 12:46:35;;;;;;;5.38;0.70;;;16.80;39.60;;;;;;4994755;28;20055;-68
2022/03/19 12:49:08;;;;;;;5.82;0.63;;;17.10;38.60;;;;;;4999381;28;20038;-67
2022/03/19 12:51:39;;;;;;;3.17;0.73;;;17.00;39.10;;;;;;5008003;28;20038;-67
2022/03/19 12:54:28;;;;;;;4.70;0.90;;;16.90;37.90;;;;;;4998886;28;20084;-69
2022/03/19 12:56:57;;;;;;;5.60;0.73;;;16.70;38.00;;;;;;5005331;28;20037;-68
2022/03/19 12:59:27;;;;;;;3.38;0.80;;;17.00;39.50;;;;;;4999672;28;20045;-68
2022/03/19 13:01:55;;;;;;;5.30;0.82;;;17.30;38.30;;;;;;5006345;28;20033;-68
2022/03/19 13:04:25;;;;;;;4.75;1.33;;;17.30;38.70;;;;;;4997584;28;20516;-67
2022/03/19 13:06:52;;;;;;;4.28;1.35;;;17.50;39.40;;;;;;5005496;28;20046;-68
2022/03/19 13:09:35;;;;;;;5.15;1.10;;;16.80;39.30;;;;;;5001856;28;20046;-68